This is the latest recevied weather packets stored in our database for station/object KC5DAQ-29. If no packets are shown the sender has not sent any weather packets the latest 1 day(s).
| Time | Temp. | Humidity | Pressure | Rain* | Wind** | Luminosity | Snow |
|---|---|---|---|---|---|---|---|
| 1777988162 | 24.44° C | 100% | 1006.7 hPa | 0 mm | 0.89 m/s, 159° | 109 W/m² | - |
| 1777988104 | 24.44° C | 100% | 1006.7 hPa | 0 mm | 1.34 m/s, 164° | 109 W/m² | - |
| 1777988043 | 24.44° C | 100% | 1006.7 hPa | 0 mm | 1.79 m/s, 173° | 109 W/m² | - |
| 1777987984 | 24.44° C | 100% | 1006.6 hPa | 0 mm | 1.34 m/s, 162° | 109 W/m² | - |
| 1777987923 | 24.44° C | 100% | 1006.6 hPa | 0 mm | 0.89 m/s, 161° | 132 W/m² | - |
| 1777987862 | 24.44° C | 100% | 1006.6 hPa | 0 mm | 1.34 m/s, 186° | 132 W/m² | - |
| 1777987804 | 24.44° C | 100% | 1006.5 hPa | 0 mm | 1.34 m/s, 207° | 132 W/m² | - |
| 1777987743 | 24.44° C | 100% | 1006.5 hPa | 0 mm | 0.89 m/s, 155° | 132 W/m² | - |
| 1777987683 | 24.44° C | 100% | 1006.6 hPa | 0 mm | 1.79 m/s, 212° | 132 W/m² | - |
| 1777987623 | 24.44° C | 100% | 1006.5 hPa | 0 mm | 1.34 m/s, 148° | 132 W/m² | - |
| 1777987562 | 24.44° C | 100% | 1006.5 hPa | 0 mm | 0.89 m/s, 172° | 132 W/m² | - |
| 1777987503 | 24.44° C | 100% | 1006.5 hPa | 0 mm | 0.89 m/s, 171° | 160 W/m² | - |
| 1777987442 | 24.44° C | 100% | 1006.5 hPa | 0 mm | 1.34 m/s, 209° | 162 W/m² | - |
| 1777987382 | 24.44° C | 100% | 1006.5 hPa | 0 mm | 1.79 m/s, 186° | 162 W/m² | - |
| 1777987323 | 24.44° C | 100% | 1006.5 hPa | 0 mm | 1.79 m/s, 188° | 162 W/m² | - |
| 1777987263 | 24.44° C | 100% | 1006.6 hPa | 0 mm | 0.89 m/s, 175° | 93 W/m² | - |
| 1777987203 | 24.44° C | 100% | 1006.7 hPa | 0 mm | 1.34 m/s, 206° | 93 W/m² | - |
| 1777987143 | 24.44° C | 100% | 1006.6 hPa | 0 mm | 0.89 m/s, 147° | 93 W/m² | - |
| 1777987083 | 24.44° C | 100% | 1006.7 hPa | 0 mm | 0.89 m/s, 147° | 93 W/m² | - |
| 1777987024 | 24.44° C | 100% | 1006.5 hPa | 0 mm | 0.89 m/s, 147° | 93 W/m² | - |
| 1777986964 | 24.44° C | 100% | 1006.5 hPa | 0 mm | 0.89 m/s, 147° | 93 W/m² | - |
| 1777986903 | 24.44° C | 100% | 1006.5 hPa | 0 mm | 0.89 m/s, 147° | 93 W/m² | - |
| 1777986843 | 24.44° C | 100% | 1006.5 hPa | 0 mm | 0.89 m/s, 147° | 93 W/m² | - |
| 1777986782 | 24.44° C | 100% | 1006.5 hPa | 0 mm | 0.89 m/s, 147° | 93 W/m² | - |
| 1777986723 | 24.44° C | 100% | 1006.4 hPa | 0 mm | 0.89 m/s, 183° | 113 W/m² | - |
* Rain latest hour (hover to see other rain measurements)
** Current wind speed in m/s (hover to see current wind gust speed)